Time;durP1;ratioP1;P1;durP2;ratioP2;P2;SDS_P1;SDS_P2;PMS_P1;PMS_P2;Temp;Humidity;BMP_temperature;BMP_pressure;BME280_temperature;BME280_humidity;BME280_pressure;Samples;Min_cycle;Max_cycle;Signal;HPM_P1;HPM_P2
2022/08/13 00:00:59;;;;;;;2.40;2.30;;;18.70;60.00;;;;;;5097655;28;20466;-81
2022/08/13 00:03:27;;;;;;;1.90;1.80;;;18.60;60.50;;;;;;5097124;28;20455;-81
2022/08/13 00:05:55;;;;;;;2.20;2.00;;;18.60;61.40;;;;;;5096851;28;20485;-80
2022/08/13 00:08:26;;;;;;;3.73;2.50;;;18.60;61.90;;;;;;5095880;28;20455;-81
2022/08/13 00:10:53;;;;;;;2.47;2.27;;;18.50;61.90;;;;;;5097257;28;20470;-81
2022/08/13 00:13:19;;;;;;;2.70;2.50;;;18.50;61.90;;;;;;5096650;28;20458;-81
2022/08/13 00:15:47;;;;;;;2.93;2.50;;;18.40;62.10;;;;;;5096752;28;20485;-81
2022/08/13 00:18:20;;;;;;;2.33;1.80;;;18.40;62.80;;;;;;5096880;28;20564;-81
2022/08/13 00:20:49;;;;;;;2.20;2.10;;;18.40;63.20;;;;;;5097053;28;20488;-81
2022/08/13 00:23:17;;;;;;;2.03;1.93;;;18.30;63.30;;;;;;5096316;28;20491;-81
2022/08/13 00:25:47;;;;;;;2.63;2.17;;;18.30;63.80;;;;;;5096246;28;20446;-81
2022/08/13 00:28:18;;;;;;;1.90;1.80;;;18.30;64.10;;;;;;5096330;28;20458;-81
2022/08/13 00:30:46;;;;;;;2.10;2.00;;;18.30;64.50;;;;;;5096166;28;20500;-80
2022/08/13 00:33:17;;;;;;;3.30;2.20;;;18.20;65.30;;;;;;5096461;28;20454;-81
2022/08/13 00:35:47;;;;;;;2.53;2.33;;;18.20;65.80;;;;;;5096483;28;20481;-81
2022/08/13 00:38:16;;;;;;;2.53;2.43;;;18.20;66.30;;;;;;5096527;28;20873;-81
2022/08/13 00:40:45;;;;;;;2.23;2.13;;;18.10;66.60;;;;;;5096383;28;20477;-81
2022/08/13 00:43:11;;;;;;;2.80;2.60;;;18.10;67.00;;;;;;5095993;28;20462;-81
2022/08/13 00:45:39;;;;;;;2.13;2.03;;;18.10;67.10;;;;;;5096108;28;20457;-81
2022/08/13 00:50:51;;;;;;;2.10;2.00;;;18.00;68.10;;;;;;5096143;28;20551;-81
2022/08/13 00:53:18;;;;;;;2.50;2.07;;;18.00;68.00;;;;;;5095962;28;20862;-80
2022/08/13 00:55:48;;;;;;;2.00;1.90;;;18.00;68.20;;;;;;5095421;28;20496;-81
2022/08/13 00:58:16;;;;;;;2.30;2.10;;;18.00;68.50;;;;;;5095455;28;20454;-78
2022/08/13 01:00:47;;;;;;;2.10;2.00;;;18.00;68.50;;;;;;5095901;28;20473;-81
2022/08/13 01:03:15;;;;;;;2.50;2.40;;;18.00;68.50;;;;;;5095375;28;20861;-81
2022/08/13 01:05:43;;;;;;;2.67;2.57;;;18.00;68.50;;;;;;5095370;28;20456;-81
2022/08/13 01:08:11;;;;;;;5.30;2.77;;;18.10;68.70;;;;;;5095514;28;20454;-81
2022/08/13 01:10:39;;;;;;;2.20;2.10;;;18.10;68.80;;;;;;5095673;28;20449;-80
2022/08/13 01:13:11;;;;;;;2.40;2.27;;;18.10;68.70;;;;;;5095357;28;20454;-81
2022/08/13 01:15:39;;;;;;;2.70;2.50;;;18.10;68.90;;;;;;5095867;28;20455;-81
2022/08/13 01:18:07;;;;;;;3.00;2.73;;;18.10;69.10;;;;;;5095510;28;20488;-81
2022/08/13 01:20:44;;;;;;;2.43;2.23;;;18.10;69.30;;;;;;5095375;28;20451;-81
2022/08/13 01:23:14;;;;;;;2.20;2.10;;;18.10;69.90;;;;;;5095652;28;20450;-81
2022/08/13 01:25:42;;;;;;;3.00;2.60;;;18.00;70.20;;;;;;5094828;28;20799;-81
2022/08/13 01:28:09;;;;;;;2.63;2.43;;;18.10;70.50;;;;;;5095617;28;20867;-81
2022/08/13 01:30:39;;;;;;;2.40;2.30;;;18.10;70.50;;;;;;5095205;28;20818;-81
2022/08/13 01:33:08;;;;;;;2.60;2.40;;;18.10;70.80;;;;;;5095308;28;20456;-79
2022/08/13 01:35:35;;;;;;;3.27;2.57;;;18.00;71.30;;;;;;5094488;28;20541;-79
2022/08/13 01:38:03;;;;;;;2.90;2.70;;;18.00;71.60;;;;;;5095134;28;20448;-80
2022/08/13 01:40:31;;;;;;;2.10;1.93;;;17.90;71.70;;;;;;5095053;28;20823;-80
2022/08/13 01:43:00;;;;;;;2.57;2.47;;;17.80;73.10;;;;;;5094977;28;20493;-80
2022/08/13 01:45:28;;;;;;;2.90;2.70;;;17.80;72.60;;;;;;5095482;28;20456;-79
2022/08/13 01:50:40;;;;;;;2.47;2.37;;;17.80;73.00;;;;;;5094968;28;20856;-81
2022/08/13 01:53:08;;;;;;;2.70;2.50;;;17.70;73.40;;;;;;5095230;28;20851;-80
2022/08/13 01:55:39;;;;;;;2.50;2.30;;;17.60;73.80;;;;;;5094917;28;20445;-80
2022/08/13 01:58:08;;;;;;;3.13;2.83;;;17.60;74.30;;;;;;5094925;28;20481;-80
2022/08/13 02:00:36;;;;;;;2.20;2.10;;;17.50;74.90;;;;;;5094271;28;20460;-80
2022/08/13 02:03:05;;;;;;;2.60;2.50;;;17.40;75.80;;;;;;5094526;28;20482;-80
2022/08/13 02:05:34;;;;;;;2.33;2.00;;;17.30;76.20;;;;;;5094632;28;20492;-80
2022/08/13 02:08:01;;;;;;;2.43;2.33;;;17.30;76.80;;;;;;5094758;28;20454;-80
2022/08/13 02:10:28;;;;;;;2.77;2.57;;;17.30;77.30;;;;;;5094081;28;20486;-80
2022/08/13 02:12:56;;;;;;;2.70;2.50;;;17.30;78.20;;;;;;5094963;28;20461;-80
2022/08/13 02:15:23;;;;;;;2.70;2.57;;;17.20;78.60;;;;;;5093673;28;20971;-79
2022/08/13 02:17:50;;;;;;;2.97;2.77;;;17.20;79.10;;;;;;5094822;28;20485;-80
2022/08/13 02:20:17;;;;;;;2.47;2.37;;;17.20;79.70;;;;;;5094411;28;20460;-80
2022/08/13 02:22:46;;;;;;;2.30;2.20;;;17.10;80.20;;;;;;5094626;28;20608;-80
2022/08/13 02:25:14;;;;;;;2.50;2.40;;;17.10;81.40;;;;;;5093693;28;20483;-80
2022/08/13 02:27:42;;;;;;;2.53;2.33;;;17.00;81.90;;;;;;5094857;28;20449;-80
2022/08/13 02:30:12;;;;;;;3.00;2.90;;;17.00;82.40;;;;;;5093499;28;20510;-80
2022/08/13 02:32:40;;;;;;;2.87;2.70;;;17.00;82.80;;;;;;5093656;28;21028;-80
2022/08/13 02:35:09;;;;;;;2.77;2.57;;;16.90;83.30;;;;;;5094107;28;20449;-80
2022/08/13 02:37:37;;;;;;;2.53;2.40;;;16.90;83.20;;;;;;5094135;28;20550;-80
2022/08/13 02:41:38;;;;;;;2.77;2.67;;;16.80;83.60;;;;;;5093881;28;20537;-80
2022/08/13 02:42:55;;;;;;;3.00;2.60;;;16.80;84.60;;;;;;5094959;28;20472;-80
2022/08/13 02:45:25;;;;;;;3.60;3.00;;;16.70;85.20;;;;;;5094400;28;20509;-80
2022/08/13 02:47:52;;;;;;;2.90;2.57;;;16.70;85.60;;;;;;5094573;28;20471;-80
2022/08/13 02:50:20;;;;;;;2.60;2.50;;;16.70;86.40;;;;;;5094654;28;20612;-80
2022/08/13 02:52:48;;;;;;;2.07;1.97;;;16.70;86.90;;;;;;5095352;28;20492;-80
2022/08/13 02:55:15;;;;;;;2.50;2.30;;;16.60;87.30;;;;;;5094324;28;20899;-80
2022/08/13 02:57:43;;;;;;;2.40;2.30;;;16.60;87.60;;;;;;5094772;28;20504;-80
2022/08/13 03:00:10;;;;;;;2.80;2.60;;;16.60;88.20;;;;;;5094297;28;20548;-80
2022/08/13 03:02:44;;;;;;;2.90;2.70;;;16.60;88.30;;;;;;5094490;28;20473;-80
2022/08/13 03:05:12;;;;;;;2.80;2.60;;;16.60;88.90;;;;;;5093879;28;20489;-80
2022/08/13 03:07:41;;;;;;;2.90;2.70;;;16.60;89.00;;;;;;5094791;28;20450;-80
2022/08/13 03:10:11;;;;;;;2.97;2.70;;;16.60;89.30;;;;;;5094161;28;20938;-80
2022/08/13 03:12:40;;;;;;;2.90;2.70;;;16.60;89.60;;;;;;5094457;28;20469;-80
2022/08/13 03:15:11;;;;;;;3.20;3.00;;;16.60;90.10;;;;;;5093120;28;20461;-80
2022/08/13 03:17:38;;;;;;;3.03;2.83;;;16.50;90.30;;;;;;5094285;28;20522;-80
2022/08/13 03:20:08;;;;;;;3.10;2.90;;;16.50;90.60;;;;;;5093854;28;20492;-80
2022/08/13 03:22:47;;;;;;;2.17;2.07;;;16.50;90.50;;;;;;5094336;28;20469;-80
2022/08/13 03:25:14;;;;;;;3.00;2.80;;;16.50;90.70;;;;;;5093861;28;20453;-80
2022/08/13 03:27:41;;;;;;;3.17;2.97;;;16.40;90.80;;;;;;5095171;28;20477;-81
2022/08/13 03:30:11;;;;;;;2.83;2.73;;;16.40;91.10;;;;;;5094507;28;20457;-80
2022/08/13 03:32:40;;;;;;;2.60;2.50;;;16.40;91.20;;;;;;5094360;28;20503;-80
2022/08/13 03:35:13;;;;;;;2.70;2.50;;;16.30;91.30;;;;;;5094107;28;20452;-79
2022/08/13 03:37:41;;;;;;;3.07;2.53;;;16.40;91.50;;;;;;5094435;28;20499;-80
2022/08/13 03:40:11;;;;;;;2.73;2.53;;;16.20;91.80;;;;;;5094491;28;20435;-80
2022/08/13 03:42:40;;;;;;;3.40;3.20;;;16.20;92.00;;;;;;5095974;28;20552;-80
2022/08/13 03:45:09;;;;;;;3.03;2.93;;;16.20;92.20;;;;;;5097734;28;20475;-79
2022/08/13 03:47:37;;;;;;;2.33;2.23;;;16.20;92.30;;;;;;5097732;28;20472;-80
2022/08/13 03:50:05;;;;;;;3.50;3.30;;;16.10;92.40;;;;;;5097882;28;20452;-80
2022/08/13 03:52:34;;;;;;;3.37;3.17;;;16.10;92.60;;;;;;5096749;28;20978;-80
2022/08/13 03:55:02;;;;;;;3.37;3.17;;;16.20;93.00;;;;;;5097226;28;20472;-80
2022/08/13 03:57:29;;;;;;;3.67;2.50;;;16.10;93.20;;;;;;5097523;28;20534;-80
2022/08/13 03:59:57;;;;;;;3.30;3.00;;;16.00;93.40;;;;;;5097864;28;20445;-80
2022/08/13 04:02:24;;;;;;;3.30;3.00;;;15.90;93.50;;;;;;5097127;28;21151;-79
2022/08/13 04:04:51;;;;;;;2.70;2.60;;;15.90;93.60;;;;;;5097379;28;20457;-80
2022/08/13 04:07:20;;;;;;;2.67;2.47;;;15.90;93.80;;;;;;5097401;28;20443;-79
2022/08/13 04:09:48;;;;;;;2.30;2.20;;;15.90;93.90;;;;;;5097324;28;20513;-80
2022/08/13 04:12:15;;;;;;;2.63;2.43;;;15.80;94.00;;;;;;5097565;28;20514;-80
2022/08/13 04:14:43;;;;;;;2.90;2.80;;;15.80;94.30;;;;;;5096556;28;20463;-80
2022/08/13 04:17:11;;;;;;;3.07;2.87;;;15.80;94.60;;;;;;5097260;28;20480;-79
2022/08/13 04:19:38;;;;;;;3.43;3.23;;;15.80;95.00;;;;;;5094849;28;21001;-80
2022/08/13 04:22:06;;;;;;;3.10;2.90;;;15.80;94.70;;;;;;5097163;28;20474;-80
2022/08/13 04:24:33;;;;;;;3.20;3.00;;;15.70;94.80;;;;;;5096221;28;20458;-80
2022/08/13 04:27:02;;;;;;;3.30;3.10;;;15.70;95.00;;;;;;5096975;28;20452;-80
2022/08/13 04:29:29;;;;;;;3.40;3.10;;;15.70;95.20;;;;;;5096802;28;20450;-80
2022/08/13 04:31:56;;;;;;;3.20;3.00;;;15.70;95.20;;;;;;5096303;28;20480;-80
2022/08/13 04:34:26;;;;;;;3.37;3.00;;;15.80;95.30;;;;;;5096593;28;20814;-80
2022/08/13 04:36:53;;;;;;;3.33;3.13;;;15.80;95.50;;;;;;5096231;28;20484;-80
2022/08/13 04:39:20;;;;;;;3.37;3.10;;;15.80;95.50;;;;;;5097041;28;20456;-80
2022/08/13 04:41:47;;;;;;;3.07;2.73;;;15.80;95.90;;;;;;5097007;28;20546;-80
2022/08/13 04:44:15;;;;;;;3.87;3.50;;;15.80;96.10;;;;;;5096791;28;20489;-80
2022/08/13 04:46:42;;;;;;;3.67;3.47;;;15.80;96.10;;;;;;5096757;28;20454;-80
2022/08/13 04:49:10;;;;;;;3.87;3.60;;;15.80;96.00;;;;;;5096614;28;20511;-79
2022/08/13 04:51:36;;;;;;;5.03;4.10;;;15.70;96.20;;;;;;5096525;28;20485;-80
2022/08/13 04:54:03;;;;;;;3.00;2.80;;;15.80;96.20;;;;;;5095794;28;20450;-80
2022/08/13 04:56:30;;;;;;;3.90;3.70;;;15.80;96.40;;;;;;5096932;28;20456;-80
2022/08/13 04:58:57;;;;;;;3.63;3.43;;;15.90;96.40;;;;;;5096466;28;20491;-79
2022/08/13 05:01:29;;;;;;;3.57;3.27;;;15.80;96.40;;;;;;5096492;28;20594;-82
2022/08/13 05:03:56;;;;;;;4.80;4.50;;;15.90;96.70;;;;;;5095789;28;20457;-82
2022/08/13 05:06:23;;;;;;;3.97;3.67;;;15.80;97.00;;;;;;5096284;28;20477;-81
2022/08/13 05:08:52;;;;;;;3.27;3.07;;;15.80;97.30;;;;;;5095644;28;20449;-81
2022/08/13 05:11:19;;;;;;;3.67;3.40;;;15.70;97.50;;;;;;5095855;28;20478;-82
2022/08/13 05:13:46;;;;;;;3.50;3.30;;;15.70;97.70;;;;;;5095485;28;20465;-82
2022/08/13 05:16:15;;;;;;;4.13;3.80;;;15.70;97.70;;;;;;5095373;28;20452;-81
2022/08/13 05:18:50;;;;;;;3.50;3.20;;;15.80;97.50;;;;;;5095191;28;20473;-81
2022/08/13 05:21:17;;;;;;;2.93;2.83;;;15.80;97.40;;;;;;5095343;28;20477;-82
2022/08/13 05:23:44;;;;;;;2.70;2.60;;;15.80;97.60;;;;;;5095113;28;20875;-82
2022/08/13 05:26:11;;;;;;;3.57;3.30;;;15.90;97.80;;;;;;5095232;28;21021;-79
2022/08/13 05:28:38;;;;;;;2.90;2.70;;;16.00;97.60;;;;;;5095231;28;20809;-82
2022/08/13 05:31:05;;;;;;;3.80;3.37;;;16.00;97.40;;;;;;5095077;28;20465;-81
2022/08/13 05:33:33;;;;;;;4.13;3.73;;;16.20;97.30;;;;;;5095024;28;20497;-82
2022/08/13 05:36:04;;;;;;;2.80;2.70;;;16.20;97.20;;;;;;5095154;28;20478;-82
2022/08/13 05:38:32;;;;;;;3.53;3.23;;;16.30;96.70;;;;;;5095217;28;20477;-82
2022/08/13 05:41:01;;;;;;;3.30;3.10;;;16.50;96.40;;;;;;5094765;28;20494;-82
2022/08/13 05:43:30;;;;;;;3.73;3.53;;;16.60;96.20;;;;;;5095027;28;20454;-82
2022/08/13 05:45:59;;;;;;;3.17;2.97;;;16.70;96.20;;;;;;5094584;28;20486;-82
2022/08/13 05:48:26;;;;;;;3.40;3.10;;;16.80;95.80;;;;;;5094786;28;20473;-82
2022/08/13 05:50:53;;;;;;;3.57;3.37;;;16.90;95.40;;;;;;5094649;28;20474;-82
2022/08/13 05:53:21;;;;;;;4.23;3.93;;;16.90;94.80;;;;;;5094863;28;20476;-82
2022/08/13 05:55:49;;;;;;;3.27;3.07;;;17.00;94.80;;;;;;5094611;28;20458;-82
2022/08/13 05:58:15;;;;;;;3.17;2.97;;;17.10;94.50;;;;;;5094856;28;20890;-82
2022/08/13 06:03:27;;;;;;;2.80;2.70;;;17.30;94.40;;;;;;5094864;28;20422;-82
2022/08/13 06:05:55;;;;;;;3.60;3.30;;;17.40;94.00;;;;;;5093702;28;20927;-82
2022/08/13 06:08:27;;;;;;;2.80;2.70;;;17.40;93.70;;;;;;5094773;28;20469;-82
2022/08/13 06:10:53;;;;;;;3.77;3.57;;;17.50;93.30;;;;;;5094581;28;20876;-81
2022/08/13 06:13:20;;;;;;;2.73;2.43;;;17.50;92.60;;;;;;5094411;28;20469;-83
2022/08/13 06:15:58;;;;;;;2.90;2.80;;;17.60;92.40;;;;;;5094500;28;20465;-81
2022/08/13 06:18:27;;;;;;;3.70;2.67;;;17.70;92.00;;;;;;5094708;28;20470;-83
2022/08/13 06:20:55;;;;;;;2.73;2.53;;;17.80;91.90;;;;;;5094730;28;20477;-83
2022/08/13 06:23:25;;;;;;;3.83;3.53;;;17.80;91.80;;;;;;5094546;28;20511;-82
2022/08/13 06:25:53;;;;;;;3.20;3.00;;;17.90;91.70;;;;;;5093923;28;20509;-83
2022/08/13 06:28:21;;;;;;;3.37;3.07;;;18.00;91.50;;;;;;5094103;28;20845;-82
2022/08/13 06:30:50;;;;;;;3.33;3.13;;;18.10;91.40;;;;;;5093926;28;20473;-82
2022/08/13 06:33:21;;;;;;;3.53;3.23;;;18.20;91.00;;;;;;5094419;28;20488;-82
2022/08/13 06:35:49;;;;;;;3.37;3.17;;;18.30;90.80;;;;;;5094470;28;20445;-83
2022/08/13 06:38:18;;;;;;;3.30;3.10;;;18.40;90.70;;;;;;5094192;28;20478;-82
2022/08/13 06:40:46;;;;;;;4.23;3.80;;;18.50;90.40;;;;;;5094223;28;20462;-82
2022/08/13 06:43:19;;;;;;;3.27;2.80;;;18.60;90.00;;;;;;5094194;28;20816;-81
2022/08/13 06:45:47;;;;;;;3.53;3.23;;;18.70;90.00;;;;;;5094063;28;20550;-82
2022/08/13 06:48:15;;;;;;;3.90;2.73;;;18.70;89.30;;;;;;5094102;28;20476;-81
2022/08/13 06:50:42;;;;;;;3.70;3.33;;;18.80;89.00;;;;;;5094369;28;20563;-82
2022/08/13 06:53:10;;;;;;;3.13;2.93;;;18.90;88.80;;;;;;5094351;28;20796;-82
2022/08/13 06:55:38;;;;;;;3.07;2.77;;;18.90;88.40;;;;;;5094204;28;20897;-81
2022/08/13 06:58:09;;;;;;;3.70;3.40;;;19.00;88.50;;;;;;5094402;28;20527;-81
2022/08/13 07:00:38;;;;;;;2.90;2.80;;;19.10;89.10;;;;;;5094191;28;20453;-82
2022/08/13 07:03:05;;;;;;;3.60;3.40;;;19.30;89.10;;;;;;5094074;28;20452;-82
2022/08/13 07:05:33;;;;;;;3.50;3.30;;;19.30;86.60;;;;;;5094301;28;20450;-82
2022/08/13 07:08:04;;;;;;;3.10;2.90;;;19.40;86.20;;;;;;5094328;28;20482;-83
2022/08/13 07:10:32;;;;;;;3.10;3.00;;;19.40;85.50;;;;;;5094144;28;20458;-83
2022/08/13 07:13:00;;;;;;;3.10;2.90;;;19.50;85.30;;;;;;5094932;28;20449;-81
2022/08/13 07:15:28;;;;;;;3.90;3.60;;;19.50;84.20;;;;;;5097745;28;20451;-80
2022/08/13 07:17:56;;;;;;;4.20;3.30;;;19.40;84.20;;;;;;5096681;28;20489;-82
2022/08/13 07:20:24;;;;;;;3.13;2.83;;;19.50;84.80;;;;;;5097867;28;20531;-82
2022/08/13 07:22:52;;;;;;;3.10;2.90;;;19.60;84.40;;;;;;5097502;28;21030;-82
2022/08/13 07:25:23;;;;;;;3.40;3.20;;;19.60;84.10;;;;;;5098151;28;20452;-82
2022/08/13 07:27:52;;;;;;;3.70;3.30;;;19.70;84.00;;;;;;5097647;28;20479;-82
2022/08/13 07:30:19;;;;;;;4.00;3.70;;;19.90;85.70;;;;;;5097186;28;21065;-82
2022/08/13 07:32:50;;;;;;;4.80;3.73;;;20.00;83.20;;;;;;5097492;28;20476;-82
2022/08/13 07:35:18;;;;;;;3.70;3.40;;;19.90;82.80;;;;;;5097942;28;20464;-82
2022/08/13 07:37:45;;;;;;;3.37;3.00;;;19.90;83.30;;;;;;5097514;28;20448;-82
2022/08/13 07:40:13;;;;;;;3.40;3.10;;;20.10;83.10;;;;;;5097927;28;20789;-82
2022/08/13 07:42:42;;;;;;;3.60;3.40;;;20.30;83.30;;;;;;5097993;28;20474;-82
2022/08/13 07:45:12;;;;;;;3.73;3.33;;;20.30;81.20;;;;;;5097860;28;20460;-83
2022/08/13 07:47:40;;;;;;;5.80;3.93;;;20.30;81.50;;;;;;5097795;28;20450;-82
2022/08/13 07:50:10;;;;;;;3.20;3.00;;;20.40;81.40;;;;;;5097669;28;20458;-82
2022/08/13 07:52:38;;;;;;;3.90;3.47;;;20.40;80.30;;;;;;5097259;28;20480;-82
2022/08/13 07:55:07;;;;;;;4.07;3.70;;;20.40;80.30;;;;;;5096878;28;20459;-82
2022/08/13 07:57:35;;;;;;;3.70;3.40;;;20.40;80.30;;;;;;5097628;28;20457;-82
2022/08/13 08:00:03;;;;;;;4.23;4.00;;;20.50;80.30;;;;;;5098039;28;20934;-81
2022/08/13 08:02:32;;;;;;;3.47;3.27;;;20.70;80.80;;;;;;5098586;28;20556;-80
2022/08/13 08:04:59;;;;;;;3.00;2.90;;;20.90;80.30;;;;;;5097415;28;20450;-80
2022/08/13 08:07:27;;;;;;;2.80;2.60;;;21.00;81.30;;;;;;5096790;28;20452;-80
2022/08/13 08:09:55;;;;;;;3.20;3.00;;;21.20;78.10;;;;;;5097851;28;20824;-80
2022/08/13 08:12:37;;;;;;;2.60;2.40;;;21.30;79.20;;;;;;5098630;28;20467;-80
2022/08/13 08:15:07;;;;;;;3.20;2.57;;;21.40;78.00;;;;;;5098770;28;20461;-80
2022/08/13 08:17:34;;;;;;;2.87;2.63;;;21.50;76.40;;;;;;5099415;28;20453;-80
2022/08/13 08:20:02;;;;;;;3.20;3.00;;;21.60;76.80;;;;;;5098632;28;20509;-81
2022/08/13 08:22:31;;;;;;;3.00;2.80;;;21.70;75.20;;;;;;5099112;28;20474;-81
2022/08/13 08:24:59;;;;;;;3.20;3.00;;;21.70;76.30;;;;;;5097643;28;20510;-80
2022/08/13 08:27:26;;;;;;;2.80;2.57;;;21.90;76.00;;;;;;5097796;28;20490;-81
2022/08/13 08:29:53;;;;;;;3.27;3.07;;;22.00;74.60;;;;;;5096250;28;20447;-81
2022/08/13 08:32:21;;;;;;;3.33;3.13;;;22.10;75.70;;;;;;5098160;28;20459;-81
2022/08/13 08:34:50;;;;;;;3.90;3.60;;;22.10;76.10;;;;;;5099975;28;20454;-81
2022/08/13 08:42:49;;;;;;;3.63;3.43;;;22.50;73.60;;;;;;5081762;22;20747;-83
2022/08/13 08:45:19;;;;;;;3.50;3.27;;;22.70;73.20;;;;;;4968880;28;20858;-84
2022/08/13 08:47:48;;;;;;;2.63;2.53;;;22.90;73.30;;;;;;4967729;28;20471;-82
2022/08/13 08:50:15;;;;;;;5.80;3.33;;;23.00;72.80;;;;;;4966673;28;20721;-83
2022/08/13 08:55:35;;;;;;;2.90;2.67;;;23.30;71.10;;;;;;4950520;29;20967;-83
2022/08/13 08:58:04;;;;;;;2.43;2.33;;;23.40;69.10;;;;;;4965467;28;20456;-82
2022/08/13 09:00:32;;;;;;;3.10;2.90;;;23.40;68.60;;;;;;5038926;28;20454;-83
2022/08/13 09:02:59;;;;;;;3.00;2.80;;;23.50;68.60;;;;;;5011325;28;20844;-84
2022/08/13 09:05:26;;;;;;;5.73;5.33;;;23.50;68.50;;;;;;4984749;28;20458;-82
2022/08/13 09:07:53;;;;;;;3.33;3.13;;;23.60;68.80;;;;;;4974990;28;20463;-83
2022/08/13 09:10:23;;;;;;;3.60;3.30;;;23.60;68.30;;;;;;5033660;28;20453;-83
2022/08/13 09:12:52;;;;;;;4.20;3.90;;;23.80;67.30;;;;;;4967091;28;20482;-82
2022/08/13 09:15:23;;;;;;;2.83;2.63;;;23.90;68.50;;;;;;5022365;28;20998;-83
2022/08/13 09:17:51;;;;;;;3.50;3.30;;;24.00;67.50;;;;;;5040756;28;20460;-84
2022/08/13 09:20:20;;;;;;;2.87;2.67;;;24.20;66.00;;;;;;5045529;28;20867;-83
2022/08/13 09:22:48;;;;;;;3.27;3.07;;;24.40;65.30;;;;;;4982051;28;20489;-85
2022/08/13 09:25:16;;;;;;;3.47;3.27;;;24.70;65.80;;;;;;5031912;28;20507;-84
2022/08/13 09:27:44;;;;;;;3.40;3.20;;;24.80;65.40;;;;;;5044292;28;20510;-85
2022/08/13 09:30:16;;;;;;;3.90;2.80;;;25.10;64.00;;;;;;4982289;28;20456;-81
2022/08/13 09:32:48;;;;;;;3.13;2.93;;;25.00;60.50;;;;;;4960631;28;20479;-84
2022/08/13 09:35:15;;;;;;;3.23;3.03;;;24.90;60.50;;;;;;4977803;28;20534;-83
2022/08/13 09:37:44;;;;;;;4.20;3.00;;;25.20;61.90;;;;;;5015305;28;20456;-84
2022/08/13 09:40:14;;;;;;;3.90;3.60;;;25.10;59.00;;;;;;5031701;28;20936;-84
2022/08/13 09:42:48;;;;;;;2.87;2.67;;;25.30;61.00;;;;;;4998928;28;20481;-86
2022/08/13 09:45:17;;;;;;;2.47;2.27;;;25.50;60.60;;;;;;4962664;28;20464;-86
2022/08/13 09:47:43;;;;;;;2.47;2.37;;;25.80;57.50;;;;;;4985033;28;20458;-86
2022/08/13 09:50:11;;;;;;;2.67;2.57;;;26.20;58.00;;;;;;5011236;28;20459;-85
2022/08/13 09:52:38;;;;;;;2.97;2.77;;;26.50;56.40;;;;;;4986236;28;20466;-86
2022/08/13 09:55:05;;;;;;;3.70;3.37;;;26.60;58.20;;;;;;5042100;28;20558;-85
2022/08/13 09:57:48;;;;;;;2.80;2.60;;;26.80;57.60;;;;;;5037529;28;20460;-86
2022/08/13 10:00:20;;;;;;;2.60;2.40;;;27.00;56.40;;;;;;4980065;28;20487;-84
2022/08/13 10:02:50;;;;;;;2.77;2.57;;;27.20;54.10;;;;;;4962248;28;20511;-86
2022/08/13 10:05:18;;;;;;;3.30;3.10;;;26.90;52.80;;;;;;4979149;28;20494;-86
2022/08/13 10:07:44;;;;;;;3.10;2.83;;;26.70;53.40;;;;;;5015084;28;20464;-85
2022/08/13 10:10:11;;;;;;;2.93;2.73;;;26.60;53.70;;;;;;4962347;28;20830;-85
2022/08/13 10:12:38;;;;;;;3.40;3.20;;;26.50;55.00;;;;;;4966839;28;20554;-85
2022/08/13 10:15:06;;;;;;;2.70;2.60;;;26.60;55.70;;;;;;5033695;28;20656;-86
2022/08/13 10:17:46;;;;;;;3.60;3.40;;;26.60;54.70;;;;;;4981815;28;20454;-87
2022/08/13 10:20:14;;;;;;;3.53;3.20;;;26.70;55.20;;;;;;4950515;29;20488;-83
2022/08/13 10:22:41;;;;;;;2.77;2.57;;;26.80;54.20;;;;;;4960036;29;20509;-84
2022/08/13 10:25:08;;;;;;;2.93;2.73;;;26.70;52.50;;;;;;5034372;28;20510;-83
2022/08/13 10:27:36;;;;;;;2.63;2.53;;;26.80;53.20;;;;;;4961300;29;20462;-83
2022/08/13 10:30:04;;;;;;;2.70;2.60;;;27.00;54.10;;;;;;4979058;28;20454;-84
2022/08/13 10:32:30;;;;;;;2.67;2.47;;;27.10;53.50;;;;;;4962296;29;20540;-84
2022/08/13 10:35:00;;;;;;;2.43;2.33;;;26.90;52.50;;;;;;5026375;28;20450;-84
2022/08/13 10:37:28;;;;;;;3.37;3.13;;;27.10;52.90;;;;;;5042622;28;20460;-85
2022/08/13 10:39:55;;;;;;;3.23;2.60;;;27.30;52.00;;;;;;4976280;28;20498;-85
2022/08/13 10:42:22;;;;;;;2.73;2.63;;;27.40;50.50;;;;;;4993651;28;20480;-83
2022/08/13 10:44:52;;;;;;;2.60;2.50;;;27.40;49.90;;;;;;4962491;28;20526;-83
2022/08/13 10:47:19;;;;;;;3.23;2.67;;;27.40;49.10;;;;;;4977232;28;20482;-85
2022/08/13 10:49:49;;;;;;;2.70;2.50;;;27.00;48.20;;;;;;4970691;28;20463;-85
2022/08/13 10:52:18;;;;;;;2.60;2.37;;;27.20;48.70;;;;;;4963332;29;20474;-83
2022/08/13 10:54:45;;;;;;;2.87;2.53;;;27.30;49.60;;;;;;5032414;28;20942;-85
2022/08/13 10:57:12;;;;;;;2.17;2.07;;;27.70;49.30;;;;;;4987832;28;20969;-84
2022/08/13 10:59:39;;;;;;;2.70;2.50;;;27.90;48.30;;;;;;5025467;28;20477;-85
2022/08/13 11:02:07;;;;;;;2.53;2.43;;;28.10;48.30;;;;;;5010516;28;20453;-83
2022/08/13 11:04:34;;;;;;;3.20;3.00;;;27.90;47.20;;;;;;5044668;28;20453;-85
2022/08/13 11:07:01;;;;;;;2.40;2.30;;;27.90;49.10;;;;;;5014629;28;20481;-84
2022/08/13 11:09:29;;;;;;;3.47;3.07;;;28.40;51.10;;;;;;4997870;28;20461;-84
2022/08/13 11:11:58;;;;;;;2.40;2.20;;;29.20;50.10;;;;;;4997852;28;20968;-85
2022/08/13 11:14:25;;;;;;;2.73;2.60;;;30.00;48.00;;;;;;4964880;28;20477;-83
2022/08/13 11:16:57;;;;;;;2.37;2.27;;;30.60;42.70;;;;;;4969988;28;20458;-85
2022/08/13 11:19:28;;;;;;;3.50;2.60;;;30.60;43.30;;;;;;5001588;28;20498;-84
2022/08/13 11:21:55;;;;;;;3.10;2.20;;;31.30;44.10;;;;;;5002894;28;20467;-83
2022/08/13 11:24:21;;;;;;;2.67;2.57;;;31.90;40.80;;;;;;4994789;28;20553;-83
2022/08/13 11:26:49;;;;;;;2.50;2.30;;;32.50;42.30;;;;;;5037536;28;20461;-85
2022/08/13 11:29:16;;;;;;;2.30;2.20;;;33.10;39.40;;;;;;4997731;28;20456;-84
2022/08/13 11:31:43;;;;;;;2.67;2.50;;;33.70;38.60;;;;;;5014841;28;20448;-84
2022/08/13 11:34:10;;;;;;;2.50;2.40;;;34.30;38.30;;;;;;4980314;28;20478;-84
2022/08/13 11:36:37;;;;;;;2.60;2.40;;;34.80;38.30;;;;;;4967030;28;20453;-85
2022/08/13 11:39:04;;;;;;;2.90;2.70;;;35.30;37.50;;;;;;5007471;28;20488;-84
2022/08/13 11:41:30;;;;;;;2.40;2.30;;;35.80;34.90;;;;;;5041122;28;20460;-85
2022/08/13 11:43:58;;;;;;;3.03;2.80;;;36.20;35.50;;;;;;4969138;28;20997;-83
2022/08/13 11:46:26;;;;;;;3.70;3.10;;;36.50;32.80;;;;;;4990557;28;20449;-84
2022/08/13 11:48:53;;;;;;;2.40;2.30;;;36.70;32.00;;;;;;4995805;28;20441;-86
2022/08/13 11:51:19;;;;;;;2.30;2.20;;;36.80;32.00;;;;;;5004780;28;20452;-84
2022/08/13 11:53:46;;;;;;;2.43;2.33;;;37.10;32.90;;;;;;5048251;28;20484;-85
2022/08/13 11:56:13;;;;;;;2.60;2.40;;;37.50;31.50;;;;;;5041901;28;20456;-84
2022/08/13 11:58:40;;;;;;;2.30;2.20;;;37.70;30.80;;;;;;4963833;29;20460;-84
2022/08/13 12:01:08;;;;;;;2.00;1.90;;;37.70;30.20;;;;;;4965296;28;20489;-85
2022/08/13 12:03:36;;;;;;;2.50;2.40;;;37.30;30.80;;;;;;4947748;28;20484;-84
2022/08/13 12:06:03;;;;;;;3.13;2.93;;;37.80;30.60;;;;;;4945710;29;20532;-84
2022/08/13 12:08:30;;;;;;;2.40;2.30;;;38.30;30.10;;;;;;5039006;28;20477;-84
2022/08/13 12:10:57;;;;;;;2.10;2.00;;;38.70;29.50;;;;;;4985726;28;20488;-84
2022/08/13 12:13:24;;;;;;;2.10;2.00;;;39.20;29.70;;;;;;4966167;29;20473;-84
2022/08/13 12:15:51;;;;;;;2.70;2.60;;;39.30;29.00;;;;;;5024795;28;20517;-85
2022/08/13 12:18:19;;;;;;;2.20;2.10;;;39.00;28.10;;;;;;5047498;28;20445;-84
2022/08/13 12:20:46;;;;;;;2.73;2.53;;;38.60;28.30;;;;;;4966927;28;20460;-84
2022/08/13 12:23:13;;;;;;;3.00;2.80;;;38.60;29.10;;;;;;4964931;29;20495;-85
2022/08/13 12:25:40;;;;;;;2.17;2.07;;;38.20;28.90;;;;;;5036595;28;20464;-85
2022/08/13 12:28:12;;;;;;;2.93;2.70;;;38.60;29.50;;;;;;4987867;28;20453;-84
2022/08/13 12:30:39;;;;;;;2.53;2.33;;;39.10;28.70;;;;;;4964049;29;20492;-84
2022/08/13 12:33:06;;;;;;;2.70;2.60;;;39.50;29.30;;;;;;5014775;28;20477;-85
2022/08/13 12:35:35;;;;;;;2.30;2.00;;;40.00;27.80;;;;;;5040808;28;20962;-85
2022/08/13 12:38:07;;;;;;;1.90;1.80;;;40.50;27.70;;;;;;4973570;28;20453;-85
2022/08/13 12:40:34;;;;;;;3.00;2.80;;;41.10;27.50;;;;;;4958839;28;20938;-85
2022/08/13 12:43:01;;;;;;;3.93;3.00;;;41.70;26.80;;;;;;4975358;28;20872;-85
2022/08/13 12:45:28;;;;;;;2.60;2.50;;;41.90;25.20;;;;;;4964836;28;20460;-84
2022/08/13 12:47:54;;;;;;;2.27;2.17;;;41.60;25.60;;;;;;4956602;29;20464;-84
2022/08/13 12:50:21;;;;;;;2.67;2.57;;;41.60;26.50;;;;;;4958032;29;20495;-84
2022/08/13 12:52:49;;;;;;;2.30;2.20;;;41.80;25.80;;;;;;4960981;28;20472;-85
2022/08/13 12:55:16;;;;;;;2.13;2.00;;;41.20;25.10;;;;;;4968188;28;20452;-85
2022/08/13 12:57:43;;;;;;;3.50;2.50;;;40.50;25.70;;;;;;4973050;28;20463;-84
2022/08/13 13:00:11;;;;;;;2.40;2.30;;;39.60;26.20;;;;;;4972563;28;20457;-85
2022/08/13 13:02:39;;;;;;;2.73;2.20;;;39.60;27.00;;;;;;4961657;28;20465;-85
2022/08/13 13:05:07;;;;;;;3.00;2.80;;;39.80;27.10;;;;;;4958150;28;20522;-85
2022/08/13 13:07:35;;;;;;;2.60;2.40;;;40.20;26.80;;;;;;4997301;28;20456;-85
2022/08/13 13:13:27;;;;;;;3.27;2.67;;;40.30;25.30;;;;;;5046299;28;20794;-85